sensor_id;sensor_type;location;lat;lon;timestamp;temperature;humidity
74792;SHT30;63319;46.046;17.802;2023-04-10T00:02:52;20.09;37.37
74792;SHT30;63319;46.046;17.802;2023-04-10T00:05:55;20.10;37.47
74792;SHT30;63319;46.046;17.802;2023-04-10T00:08:59;20.09;37.59
74792;SHT30;63319;46.046;17.802;2023-04-10T00:12:06;20.10;37.57
74792;SHT30;63319;46.046;17.802;2023-04-10T00:15:09;20.09;37.47
74792;SHT30;63319;46.046;17.802;2023-04-10T00:18:12;20.08;37.63
74792;SHT30;63319;46.046;17.802;2023-04-10T00:21:15;20.09;37.64
74792;SHT30;63319;46.046;17.802;2023-04-10T00:24:18;20.03;37.26
74792;SHT30;63319;46.046;17.802;2023-04-10T00:27:21;20.06;37.57
74792;SHT30;63319;46.046;17.802;2023-04-10T00:30:24;20.03;37.51
74792;SHT30;63319;46.046;17.802;2023-04-10T00:33:27;20.05;37.47
74792;SHT30;63319;46.046;17.802;2023-04-10T00:36:30;20.05;37.31
74792;SHT30;63319;46.046;17.802;2023-04-10T00:39:33;20.06;37.63
74792;SHT30;63319;46.046;17.802;2023-04-10T00:42:36;20.02;37.50
74792;SHT30;63319;46.046;17.802;2023-04-10T00:45:39;20.02;37.37
74792;SHT30;63319;46.046;17.802;2023-04-10T00:48:42;20.03;37.86
74792;SHT30;63319;46.046;17.802;2023-04-10T00:51:45;20.02;37.57
74792;SHT30;63319;46.046;17.802;2023-04-10T00:54:49;20.02;37.51
74792;SHT30;63319;46.046;17.802;2023-04-10T00:57:54;20.00;37.60
74792;SHT30;63319;46.046;17.802;2023-04-10T01:00:58;19.99;37.42
74792;SHT30;63319;46.046;17.802;2023-04-10T01:04:01;19.99;37.68
74792;SHT30;63319;46.046;17.802;2023-04-10T01:10:39;19.94;37.53
74792;SHT30;63319;46.046;17.802;2023-04-10T01:13:54;19.94;37.49
74792;SHT30;63319;46.046;17.802;2023-04-10T01:20:34;19.94;37.53
74792;SHT30;63319;46.046;17.802;2023-04-10T01:24:06;19.93;37.55
74792;SHT30;63319;46.046;17.802;2023-04-10T01:30:31;19.96;37.28
74792;SHT30;63319;46.046;17.802;2023-04-10T01:34:06;19.93;37.61
74792;SHT30;63319;46.046;17.802;2023-04-10T01:40:20;19.94;37.61
74792;SHT30;63319;46.046;17.802;2023-04-10T01:43:25;19.94;37.39
74792;SHT30;63319;46.046;17.802;2023-04-10T01:46:29;19.90;37.59
74792;SHT30;63319;46.046;17.802;2023-04-10T01:49:34;19.94;37.53
74792;SHT30;63319;46.046;17.802;2023-04-10T01:52:40;19.93;37.57
74792;SHT30;63319;46.046;17.802;2023-04-10T01:55:53;19.90;37.56
74792;SHT30;63319;46.046;17.802;2023-04-10T01:58:57;19.89;37.47
74792;SHT30;63319;46.046;17.802;2023-04-10T02:02:00;19.90;37.36
74792;SHT30;63319;46.046;17.802;2023-04-10T02:05:03;19.87;37.57
74792;SHT30;63319;46.046;17.802;2023-04-10T02:08:12;19.86;37.49
74792;SHT30;63319;46.046;17.802;2023-04-10T02:11:39;19.90;37.60
74792;SHT30;63319;46.046;17.802;2023-04-10T02:14:45;19.92;37.46
74792;SHT30;63319;46.046;17.802;2023-04-10T02:17:50;19.87;37.57
74792;SHT30;63319;46.046;17.802;2023-04-10T02:20:53;19.87;37.59
74792;SHT30;63319;46.046;17.802;2023-04-10T02:23:57;19.89;37.37
74792;SHT30;63319;46.046;17.802;2023-04-10T02:27:00;19.86;37.56
74792;SHT30;63319;46.046;17.802;2023-04-10T02:30:03;19.86;37.51
74792;SHT30;63319;46.046;17.802;2023-04-10T02:33:08;19.87;37.59
74792;SHT30;63319;46.046;17.802;2023-04-10T02:36:11;19.90;37.44
74792;SHT30;63319;46.046;17.802;2023-04-10T02:39:15;19.89;37.77
74792;SHT30;63319;46.046;17.802;2023-04-10T02:42:26;19.85;37.41
74792;SHT30;63319;46.046;17.802;2023-04-10T02:45:33;19.86;37.59
74792;SHT30;63319;46.046;17.802;2023-04-10T02:48:36;19.87;37.73
74792;SHT30;63319;46.046;17.802;2023-04-10T02:51:40;19.85;37.71
74792;SHT30;63319;46.046;17.802;2023-04-10T02:54:44;19.87;37.68
74792;SHT30;63319;46.046;17.802;2023-04-10T02:57:47;19.87;37.62
74792;SHT30;63319;46.046;17.802;2023-04-10T03:00:50;19.87;37.51
74792;SHT30;63319;46.046;17.802;2023-04-10T03:04:11;19.86;37.40
74792;SHT30;63319;46.046;17.802;2023-04-10T03:07:34;19.87;37.43
74792;SHT30;63319;46.046;17.802;2023-04-10T03:10:38;19.82;37.60
74792;SHT30;63319;46.046;17.802;2023-04-10T03:13:41;19.85;37.51
74792;SHT30;63319;46.046;17.802;2023-04-10T03:16:44;19.82;37.59
74792;SHT30;63319;46.046;17.802;2023-04-10T03:19:49;19.83;37.58
74792;SHT30;63319;46.046;17.802;2023-04-10T03:22:52;19.82;37.50
74792;SHT30;63319;46.046;17.802;2023-04-10T03:25:54;19.81;37.55
74792;SHT30;63319;46.046;17.802;2023-04-10T03:29:01;19.82;37.71
74792;SHT30;63319;46.046;17.802;2023-04-10T03:32:05;19.82;37.74
74792;SHT30;63319;46.046;17.802;2023-04-10T03:35:09;19.82;37.42
74792;SHT30;63319;46.046;17.802;2023-04-10T03:38:12;19.83;37.75
74792;SHT30;63319;46.046;17.802;2023-04-10T03:41:15;19.85;37.60
74792;SHT30;63319;46.046;17.802;2023-04-10T03:44:18;19.82;37.80
74792;SHT30;63319;46.046;17.802;2023-04-10T03:47:21;19.85;37.61
74792;SHT30;63319;46.046;17.802;2023-04-10T03:50:27;19.85;37.43
74792;SHT30;63319;46.046;17.802;2023-04-10T03:53:34;19.83;37.51
74792;SHT30;63319;46.046;17.802;2023-04-10T03:56:42;19.82;37.64
74792;SHT30;63319;46.046;17.802;2023-04-10T03:59:48;19.82;37.68
74792;SHT30;63319;46.046;17.802;2023-04-10T04:02:51;19.79;37.44
74792;SHT30;63319;46.046;17.802;2023-04-10T04:06:20;19.78;37.58
74792;SHT30;63319;46.046;17.802;2023-04-10T04:09:50;19.79;37.35
74792;SHT30;63319;46.046;17.802;2023-04-10T04:12:59;19.81;37.68
74792;SHT30;63319;46.046;17.802;2023-04-10T04:16:22;19.81;37.75
74792;SHT30;63319;46.046;17.802;2023-04-10T04:19:32;19.81;37.58
74792;SHT30;63319;46.046;17.802;2023-04-10T04:22:57;19.79;37.54
74792;SHT30;63319;46.046;17.802;2023-04-10T04:26:22;19.81;37.66
74792;SHT30;63319;46.046;17.802;2023-04-10T04:29:46;19.79;37.48
74792;SHT30;63319;46.046;17.802;2023-04-10T04:32:56;19.79;37.38
74792;SHT30;63319;46.046;17.802;2023-04-10T04:36:21;19.78;37.72
74792;SHT30;63319;46.046;17.802;2023-04-10T04:39:33;19.81;37.19
74792;SHT30;63319;46.046;17.802;2023-04-10T04:42:54;19.78;37.48
74792;SHT30;63319;46.046;17.802;2023-04-10T04:46:10;19.83;37.48
74792;SHT30;63319;46.046;17.802;2023-04-10T04:49:44;19.82;37.46
74792;SHT30;63319;46.046;17.802;2023-04-10T04:52:59;19.82;37.32
74792;SHT30;63319;46.046;17.802;2023-04-10T04:56:08;19.81;37.59
74792;SHT30;63319;46.046;17.802;2023-04-10T04:59:40;19.85;37.43
74792;SHT30;63319;46.046;17.802;2023-04-10T05:02:54;19.85;37.55
74792;SHT30;63319;46.046;17.802;2023-04-10T05:06:24;19.82;37.51
74792;SHT30;63319;46.046;17.802;2023-04-10T05:09:46;19.85;37.33
74792;SHT30;63319;46.046;17.802;2023-04-10T05:13:12;19.86;37.55
74792;SHT30;63319;46.046;17.802;2023-04-10T05:16:43;19.85;37.33
74792;SHT30;63319;46.046;17.802;2023-04-10T05:19:54;19.86;37.57
74792;SHT30;63319;46.046;17.802;2023-04-10T05:23:18;19.90;37.47
74792;SHT30;63319;46.046;17.802;2023-04-10T05:26:56;19.92;37.20
74792;SHT30;63319;46.046;17.802;2023-04-10T05:30:37;19.93;37.25
74792;SHT30;63319;46.046;17.802;2023-04-10T05:34:06;19.94;37.40
74792;SHT30;63319;46.046;17.802;2023-04-10T05:37:43;20.00;37.35
74792;SHT30;63319;46.046;17.802;2023-04-10T05:41:00;20.05;37.34
74792;SHT30;63319;46.046;17.802;2023-04-10T05:44:33;20.06;37.19
74792;SHT30;63319;46.046;17.802;2023-04-10T05:47:36;20.10;37.22
74792;SHT30;63319;46.046;17.802;2023-04-10T05:50:48;20.13;37.08
74792;SHT30;63319;46.046;17.802;2023-04-10T05:54:05;20.19;37.10
74792;SHT30;63319;46.046;17.802;2023-04-10T05:57:34;20.24;37.03
74792;SHT30;63319;46.046;17.802;2023-04-10T06:00:52;20.29;36.82
74792;SHT30;63319;46.046;17.802;2023-04-10T06:04:17;20.30;37.07
74792;SHT30;63319;46.046;17.802;2023-04-10T06:07:21;20.37;36.91
74792;SHT30;63319;46.046;17.802;2023-04-10T06:10:23;20.41;36.90
74792;SHT30;63319;46.046;17.802;2023-04-10T06:13:27;20.47;36.85
74792;SHT30;63319;46.046;17.802;2023-04-10T06:16:33;20.52;36.68
74792;SHT30;63319;46.046;17.802;2023-04-10T06:19:36;20.61;36.82
74792;SHT30;63319;46.046;17.802;2023-04-10T06:22:39;20.65;36.57
74792;SHT30;63319;46.046;17.802;2023-04-10T06:26:01;20.69;36.66
74792;SHT30;63319;46.046;17.802;2023-04-10T06:29:05;20.79;36.57
74792;SHT30;63319;46.046;17.802;2023-04-10T06:32:09;20.84;36.42
74792;SHT30;63319;46.046;17.802;2023-04-10T06:35:14;20.89;36.41
74792;SHT30;63319;46.046;17.802;2023-04-10T06:38:17;20.99;36.13
74792;SHT30;63319;46.046;17.802;2023-04-10T06:41:20;21.03;36.09
74792;SHT30;63319;46.046;17.802;2023-04-10T06:44:28;21.10;36.11
74792;SHT30;63319;46.046;17.802;2023-04-10T06:47:31;21.16;35.99
74792;SHT30;63319;46.046;17.802;2023-04-10T06:50:34;21.22;35.95
74792;SHT30;63319;46.046;17.802;2023-04-10T06:53:37;21.30;35.74
74792;SHT30;63319;46.046;17.802;2023-04-10T06:56:40;21.36;35.68
74792;SHT30;63319;46.046;17.802;2023-04-10T06:59:43;21.43;35.60
74792;SHT30;63319;46.046;17.802;2023-04-10T07:02:46;21.49;35.46
74792;SHT30;63319;46.046;17.802;2023-04-10T07:05:49;21.57;35.37
74792;SHT30;63319;46.046;17.802;2023-04-10T07:08:51;21.65;35.32
74792;SHT30;63319;46.046;17.802;2023-04-10T07:11:55;21.74;35.31
74792;SHT30;63319;46.046;17.802;2023-04-10T07:14:59;21.83;35.16
74792;SHT30;63319;46.046;17.802;2023-04-10T07:18:01;21.92;35.04
74792;SHT30;63319;46.046;17.802;2023-04-10T07:21:11;22.00;34.91
74792;SHT30;63319;46.046;17.802;2023-04-10T07:24:15;22.11;34.80
74792;SHT30;63319;46.046;17.802;2023-04-10T07:27:18;22.22;34.64
74792;SHT30;63319;46.046;17.802;2023-04-10T07:30:22;22.36;34.41
74792;SHT30;63319;46.046;17.802;2023-04-10T07:33:25;22.45;34.36
74792;SHT30;63319;46.046;17.802;2023-04-10T07:36:28;22.56;34.11
74792;SHT30;63319;46.046;17.802;2023-04-10T07:39:31;22.71;33.94
74792;SHT30;63319;46.046;17.802;2023-04-10T07:42:34;22.84;33.74
74792;SHT30;63319;46.046;17.802;2023-04-10T07:45:36;22.96;33.60
74792;SHT30;63319;46.046;17.802;2023-04-10T07:48:39;23.11;33.50
74792;SHT30;63319;46.046;17.802;2023-04-10T07:51:42;23.27;33.26
74792;SHT30;63319;46.046;17.802;2023-04-10T07:54:45;23.44;33.06
74792;SHT30;63319;46.046;17.802;2023-04-10T07:57:48;23.63;32.82
74792;SHT30;63319;46.046;17.802;2023-04-10T08:00:53;23.82;32.37
74792;SHT30;63319;46.046;17.802;2023-04-10T08:03:57;24.03;32.14
74792;SHT30;63319;46.046;17.802;2023-04-10T08:07:07;24.27;31.72
74792;SHT30;63319;46.046;17.802;2023-04-10T08:10:10;24.48;31.32
74792;SHT30;63319;46.046;17.802;2023-04-10T08:13:13;24.78;31.03
74792;SHT30;63319;46.046;17.802;2023-04-10T08:16:18;25.12;30.54
74792;SHT30;63319;46.046;17.802;2023-04-10T08:19:21;25.47;29.98
74792;SHT30;63319;46.046;17.802;2023-04-10T08:22:24;25.89;29.59
74792;SHT30;63319;46.046;17.802;2023-04-10T08:25:26;26.18;29.11
74792;SHT30;63319;46.046;17.802;2023-04-10T08:28:29;26.52;28.60
74792;SHT30;63319;46.046;17.802;2023-04-10T08:31:34;26.83;28.23
74792;SHT30;63319;46.046;17.802;2023-04-10T08:34:37;27.05;27.96
74792;SHT30;63319;46.046;17.802;2023-04-10T08:37:40;27.21;27.85
74792;SHT30;63319;46.046;17.802;2023-04-10T08:40:43;27.39;27.65
74792;SHT30;63319;46.046;17.802;2023-04-10T08:43:46;27.43;27.58
74792;SHT30;63319;46.046;17.802;2023-04-10T08:46:51;27.58;27.38
74792;SHT30;63319;46.046;17.802;2023-04-10T08:49:59;27.69;27.31
74792;SHT30;63319;46.046;17.802;2023-04-10T08:53:11;27.76;27.18
74792;SHT30;63319;46.046;17.802;2023-04-10T08:56:15;27.94;27.14
74792;SHT30;63319;46.046;17.802;2023-04-10T08:59:19;28.01;26.96
74792;SHT30;63319;46.046;17.802;2023-04-10T09:02:38;28.08;26.96
74792;SHT30;63319;46.046;17.802;2023-04-10T09:05:44;28.07;26.87
74792;SHT30;63319;46.046;17.802;2023-04-10T09:08:47;28.20;26.84
74792;SHT30;63319;46.046;17.802;2023-04-10T09:15:02;28.27;26.74
74792;SHT30;63319;46.046;17.802;2023-04-10T09:18:05;28.22;26.78
74792;SHT30;63319;46.046;17.802;2023-04-10T09:21:09;28.28;26.81
74792;SHT30;63319;46.046;17.802;2023-04-10T09:24:12;28.27;26.91
74792;SHT30;63319;46.046;17.802;2023-04-10T09:27:35;28.40;26.70
74792;SHT30;63319;46.046;17.802;2023-04-10T09:30:40;28.40;26.78
74792;SHT30;63319;46.046;17.802;2023-04-10T09:33:43;28.47;26.67
74792;SHT30;63319;46.046;17.802;2023-04-10T09:36:57;28.41;26.79
74792;SHT30;63319;46.046;17.802;2023-04-10T09:40:00;28.24;26.93
74792;SHT30;63319;46.046;17.802;2023-04-10T09:43:19;28.44;26.83
74792;SHT30;63319;46.046;17.802;2023-04-10T09:46:25;28.40;26.81
74792;SHT30;63319;46.046;17.802;2023-04-10T09:49:53;28.49;26.80
74792;SHT30;63319;46.046;17.802;2023-04-10T09:52:56;28.44;26.81
74792;SHT30;63319;46.046;17.802;2023-04-10T09:55:59;28.33;26.98
74792;SHT30;63319;46.046;17.802;2023-04-10T09:59:02;28.44;26.97
74792;SHT30;63319;46.046;17.802;2023-04-10T10:02:07;27.71;27.77
74792;SHT30;63319;46.046;17.802;2023-04-10T10:05:10;27.53;28.12
74792;SHT30;63319;46.046;17.802;2023-04-10T10:08:14;27.98;27.63
74792;SHT30;63319;46.046;17.802;2023-04-10T10:11:20;28.17;27.38
74792;SHT30;63319;46.046;17.802;2023-04-10T10:14:25;28.33;27.22
74792;SHT30;63319;46.046;17.802;2023-04-10T10:20:57;28.22;27.46
74792;SHT30;63319;46.046;17.802;2023-04-10T10:24:02;28.22;27.34
74792;SHT30;63319;46.046;17.802;2023-04-10T10:27:08;28.33;27.25
74792;SHT30;63319;46.046;17.802;2023-04-10T10:30:12;28.35;27.22
74792;SHT30;63319;46.046;17.802;2023-04-10T10:33:31;28.56;27.00
74792;SHT30;63319;46.046;17.802;2023-04-10T10:36:38;28.58;27.00
74792;SHT30;63319;46.046;17.802;2023-04-10T10:40:04;28.56;26.97
74792;SHT30;63319;46.046;17.802;2023-04-10T10:43:23;27.97;27.70
74792;SHT30;63319;46.046;17.802;2023-04-10T10:46:48;27.45;28.31
74792;SHT30;63319;46.046;17.802;2023-04-10T10:49:54;28.04;27.78
74792;SHT30;63319;46.046;17.802;2023-04-10T10:52:57;28.31;27.53
74792;SHT30;63319;46.046;17.802;2023-04-10T11:06:13;27.01;29.01
74792;SHT30;63319;46.046;17.802;2023-04-10T11:13:16;27.97;28.01
74792;SHT30;63319;46.046;17.802;2023-04-10T11:16:20;27.73;28.11
74792;SHT30;63319;46.046;17.802;2023-04-10T11:19:23;27.15;28.85
74792;SHT30;63319;46.046;17.802;2023-04-10T11:22:27;26.84;29.27
74792;SHT30;63319;46.046;17.802;2023-04-10T11:25:49;26.67;29.51
74792;SHT30;63319;46.046;17.802;2023-04-10T11:28:52;26.61;29.68
74792;SHT30;63319;46.046;17.802;2023-04-10T11:32:02;27.11;29.01
74792;SHT30;63319;46.046;17.802;2023-04-10T11:35:06;27.42;28.57
74792;SHT30;63319;46.046;17.802;2023-04-10T11:38:16;27.56;28.38
74792;SHT30;63319;46.046;17.802;2023-04-10T11:41:19;27.79;28.11
74792;SHT30;63319;46.046;17.802;2023-04-10T11:47:27;27.55;28.38
74792;SHT30;63319;46.046;17.802;2023-04-10T11:50:30;27.89;28.06
74792;SHT30;63319;46.046;17.802;2023-04-10T11:53:40;27.94;27.95
74792;SHT30;63319;46.046;17.802;2023-04-10T11:56:44;28.04;27.77
74792;SHT30;63319;46.046;17.802;2023-04-10T11:59:49;27.74;28.14
74792;SHT30;63319;46.046;17.802;2023-04-10T12:02:52;27.21;28.79
74792;SHT30;63319;46.046;17.802;2023-04-10T12:05:56;26.91;29.22
74792;SHT30;63319;46.046;17.802;2023-04-10T12:08:58;26.73;29.51
74792;SHT30;63319;46.046;17.802;2023-04-10T12:12:03;26.57;29.79
74792;SHT30;63319;46.046;17.802;2023-04-10T12:15:28;26.73;29.56
74792;SHT30;63319;46.046;17.802;2023-04-10T12:18:32;27.08;29.10
74792;SHT30;63319;46.046;17.802;2023-04-10T12:21:35;27.10;29.11
74792;SHT30;63319;46.046;17.802;2023-04-10T12:24:50;26.97;29.25
74792;SHT30;63319;46.046;17.802;2023-04-10T12:27:54;26.91;29.40
74792;SHT30;63319;46.046;17.802;2023-04-10T12:30:57;26.86;29.44
74792;SHT30;63319;46.046;17.802;2023-04-10T12:34:00;26.73;29.67
74792;SHT30;63319;46.046;17.802;2023-04-10T12:37:04;26.83;29.46
74792;SHT30;63319;46.046;17.802;2023-04-10T12:40:08;26.87;29.40
74792;SHT30;63319;46.046;17.802;2023-04-10T12:43:31;26.80;29.52
74792;SHT30;63319;46.046;17.802;2023-04-10T12:46:35;26.72;29.56
74792;SHT30;63319;46.046;17.802;2023-04-10T12:49:38;26.57;29.82
74792;SHT30;63319;46.046;17.802;2023-04-10T12:52:43;26.43;30.03
74792;SHT30;63319;46.046;17.802;2023-04-10T12:56:03;26.29;30.18
74792;SHT30;63319;46.046;17.802;2023-04-10T12:59:08;26.26;30.33
74792;SHT30;63319;46.046;17.802;2023-04-10T13:02:12;26.28;30.25
74792;SHT30;63319;46.046;17.802;2023-04-10T13:05:15;26.26;30.25
74792;SHT30;63319;46.046;17.802;2023-04-10T13:08:18;26.31;30.19
74792;SHT30;63319;46.046;17.802;2023-04-10T13:11:21;26.18;30.28
74792;SHT30;63319;46.046;17.802;2023-04-10T13:14:24;26.16;30.38
74792;SHT30;63319;46.046;17.802;2023-04-10T13:17:27;26.01;30.59
74792;SHT30;63319;46.046;17.802;2023-04-10T13:20:30;25.89;30.83
74792;SHT30;63319;46.046;17.802;2023-04-10T13:23:33;25.85;30.82
74792;SHT30;63319;46.046;17.802;2023-04-10T13:26:36;25.80;31.00
74792;SHT30;63319;46.046;17.802;2023-04-10T13:29:41;25.82;30.89
74792;SHT30;63319;46.046;17.802;2023-04-10T13:32:44;25.74;31.00
74792;SHT30;63319;46.046;17.802;2023-04-10T13:35:47;25.66;31.10
74792;SHT30;63319;46.046;17.802;2023-04-10T13:38:50;25.60;31.16
74792;SHT30;63319;46.046;17.802;2023-04-10T13:41:53;25.56;31.32
74792;SHT30;63319;46.046;17.802;2023-04-10T13:44:55;25.47;31.52
74792;SHT30;63319;46.046;17.802;2023-04-10T13:47:58;25.44;31.48
74792;SHT30;63319;46.046;17.802;2023-04-10T13:51:01;25.39;31.50
74792;SHT30;63319;46.046;17.802;2023-04-10T13:54:04;25.36;31.61
74792;SHT30;63319;46.046;17.802;2023-04-10T13:57:08;25.31;31.67
74792;SHT30;63319;46.046;17.802;2023-04-10T14:00:11;25.31;31.64
74792;SHT30;63319;46.046;17.802;2023-04-10T14:03:14;25.23;31.77
74792;SHT30;63319;46.046;17.802;2023-04-10T14:06:20;25.22;31.77
74792;SHT30;63319;46.046;17.802;2023-04-10T14:09:22;25.19;31.86
74792;SHT30;63319;46.046;17.802;2023-04-10T14:12:26;25.05;32.04
74792;SHT30;63319;46.046;17.802;2023-04-10T14:15:29;25.02;32.07
74792;SHT30;63319;46.046;17.802;2023-04-10T14:18:31;24.98;32.24
74792;SHT30;63319;46.046;17.802;2023-04-10T14:21:34;24.89;32.35
74792;SHT30;63319;46.046;17.802;2023-04-10T14:24:37;24.85;32.38
74792;SHT30;63319;46.046;17.802;2023-04-10T14:27:41;24.81;32.44
74792;SHT30;63319;46.046;17.802;2023-04-10T14:30:45;24.78;32.51
74792;SHT30;63319;46.046;17.802;2023-04-10T14:33:48;24.69;32.56
74792;SHT30;63319;46.046;17.802;2023-04-10T14:36:50;24.67;32.65
74792;SHT30;63319;46.046;17.802;2023-04-10T14:39:57;24.67;32.69
74792;SHT30;63319;46.046;17.802;2023-04-10T14:43:00;24.60;32.80
74792;SHT30;63319;46.046;17.802;2023-04-10T14:46:03;24.61;32.74
74792;SHT30;63319;46.046;17.802;2023-04-10T14:49:06;24.64;32.68
74792;SHT30;63319;46.046;17.802;2023-04-10T14:52:09;24.61;32.77
74792;SHT30;63319;46.046;17.802;2023-04-10T14:55:12;24.62;32.71
74792;SHT30;63319;46.046;17.802;2023-04-10T14:58:15;24.64;32.71
74792;SHT30;63319;46.046;17.802;2023-04-10T15:01:17;24.64;32.68
74792;SHT30;63319;46.046;17.802;2023-04-10T15:04:21;24.62;32.68
74792;SHT30;63319;46.046;17.802;2023-04-10T15:07:24;24.60;32.83
74792;SHT30;63319;46.046;17.802;2023-04-10T15:10:30;24.55;32.84
74792;SHT30;63319;46.046;17.802;2023-04-10T15:13:32;24.51;32.89
74792;SHT30;63319;46.046;17.802;2023-04-10T15:16:35;24.51;32.88
74792;SHT30;63319;46.046;17.802;2023-04-10T15:19:38;24.44;32.97
74792;SHT30;63319;46.046;17.802;2023-04-10T15:22:41;24.43;33.05
74792;SHT30;63319;46.046;17.802;2023-04-10T15:25:47;24.38;33.03
74792;SHT30;63319;46.046;17.802;2023-04-10T15:28:51;24.34;33.18
74792;SHT30;63319;46.046;17.802;2023-04-10T15:31:54;24.28;33.21
74792;SHT30;63319;46.046;17.802;2023-04-10T15:34:57;24.25;33.30
74792;SHT30;63319;46.046;17.802;2023-04-10T15:38:06;24.20;33.38
74792;SHT30;63319;46.046;17.802;2023-04-10T15:41:11;24.14;33.45
74792;SHT30;63319;46.046;17.802;2023-04-10T15:44:15;24.12;33.54
74792;SHT30;63319;46.046;17.802;2023-04-10T15:47:18;24.07;33.58
74792;SHT30;63319;46.046;17.802;2023-04-10T15:50:20;24.02;33.68
74792;SHT30;63319;46.046;17.802;2023-04-10T15:53:23;23.97;33.75
74792;SHT30;63319;46.046;17.802;2023-04-10T15:56:26;23.92;33.80
74792;SHT30;63319;46.046;17.802;2023-04-10T15:59:29;23.90;33.84
74792;SHT30;63319;46.046;17.802;2023-04-10T16:02:32;23.86;33.87
74792;SHT30;63319;46.046;17.802;2023-04-10T16:05:35;23.86;33.92
74792;SHT30;63319;46.046;17.802;2023-04-10T16:08:38;23.82;33.99
74792;SHT30;63319;46.046;17.802;2023-04-10T16:11:41;23.79;33.99
74792;SHT30;63319;46.046;17.802;2023-04-10T16:14:43;23.73;34.03
74792;SHT30;63319;46.046;17.802;2023-04-10T16:17:46;23.69;34.14
74792;SHT30;63319;46.046;17.802;2023-04-10T16:20:49;23.69;34.17
74792;SHT30;63319;46.046;17.802;2023-04-10T16:23:52;23.65;34.24
74792;SHT30;63319;46.046;17.802;2023-04-10T16:26:55;23.63;34.26
74792;SHT30;63319;46.046;17.802;2023-04-10T16:29:58;23.61;34.27
74792;SHT30;63319;46.046;17.802;2023-04-10T16:33:01;23.58;34.32
74792;SHT30;63319;46.046;17.802;2023-04-10T16:36:04;23.55;34.36
74792;SHT30;63319;46.046;17.802;2023-04-10T16:39:08;23.51;34.40
74792;SHT30;63319;46.046;17.802;2023-04-10T16:42:11;23.52;34.48
74792;SHT30;63319;46.046;17.802;2023-04-10T16:45:13;23.49;34.49
74792;SHT30;63319;46.046;17.802;2023-04-10T16:48:16;23.46;34.53
74792;SHT30;63319;46.046;17.802;2023-04-10T16:51:19;23.41;34.59
74792;SHT30;63319;46.046;17.802;2023-04-10T16:54:22;23.39;34.63
74792;SHT30;63319;46.046;17.802;2023-04-10T16:57:25;23.35;34.66
74792;SHT30;63319;46.046;17.802;2023-04-10T17:00:28;23.32;34.73
74792;SHT30;63319;46.046;17.802;2023-04-10T17:03:32;23.31;34.77
74792;SHT30;63319;46.046;17.802;2023-04-10T17:06:35;23.27;34.80
74792;SHT30;63319;46.046;17.802;2023-04-10T17:09:37;23.25;34.86
74792;SHT30;63319;46.046;17.802;2023-04-10T17:12:40;23.21;34.83
74792;SHT30;63319;46.046;17.802;2023-04-10T17:15:44;23.21;34.91
74792;SHT30;63319;46.046;17.802;2023-04-10T17:18:46;23.17;35.02
74792;SHT30;63319;46.046;17.802;2023-04-10T17:21:49;23.12;35.06
74792;SHT30;63319;46.046;17.802;2023-04-10T17:24:53;23.10;35.11
74792;SHT30;63319;46.046;17.802;2023-04-10T17:27:56;23.06;35.16
74792;SHT30;63319;46.046;17.802;2023-04-10T17:31:00;22.98;35.20
74792;SHT30;63319;46.046;17.802;2023-04-10T17:34:03;23.00;35.27
74792;SHT30;63319;46.046;17.802;2023-04-10T17:37:06;22.94;35.33
74792;SHT30;63319;46.046;17.802;2023-04-10T17:40:09;22.93;35.35
74792;SHT30;63319;46.046;17.802;2023-04-10T17:43:13;22.91;35.40
74792;SHT30;63319;46.046;17.802;2023-04-10T17:46:16;22.86;35.45
74792;SHT30;63319;46.046;17.802;2023-04-10T17:49:22;22.84;35.52
74792;SHT30;63319;46.046;17.802;2023-04-10T17:52:25;22.80;35.59
74792;SHT30;63319;46.046;17.802;2023-04-10T17:55:28;22.74;35.61
74792;SHT30;63319;46.046;17.802;2023-04-10T17:58:31;22.74;35.61
74792;SHT30;63319;46.046;17.802;2023-04-10T18:01:34;22.73;35.72
74792;SHT30;63319;46.046;17.802;2023-04-10T18:04:37;22.69;35.67
74792;SHT30;63319;46.046;17.802;2023-04-10T18:07:40;22.67;35.74
74792;SHT30;63319;46.046;17.802;2023-04-10T18:10:43;22.62;35.75
74792;SHT30;63319;46.046;17.802;2023-04-10T18:13:46;22.59;35.82
74792;SHT30;63319;46.046;17.802;2023-04-10T18:16:49;22.59;35.91
74792;SHT30;63319;46.046;17.802;2023-04-10T18:19:53;22.56;35.95
74792;SHT30;63319;46.046;17.802;2023-04-10T18:22:58;22.55;36.00
74792;SHT30;63319;46.046;17.802;2023-04-10T18:26:01;22.52;35.99
74792;SHT30;63319;46.046;17.802;2023-04-10T18:29:06;22.45;36.02
74792;SHT30;63319;46.046;17.802;2023-04-10T18:32:09;22.45;36.04
74792;SHT30;63319;46.046;17.802;2023-04-10T18:35:12;22.46;36.08
74792;SHT30;63319;46.046;17.802;2023-04-10T18:38:15;22.43;36.11
74792;SHT30;63319;46.046;17.802;2023-04-10T18:41:18;22.42;36.20
74792;SHT30;63319;46.046;17.802;2023-04-10T18:44:21;22.39;36.22
74792;SHT30;63319;46.046;17.802;2023-04-10T18:47:24;22.38;36.19
74792;SHT30;63319;46.046;17.802;2023-04-10T18:50:27;22.35;36.30
74792;SHT30;63319;46.046;17.802;2023-04-10T18:53:30;22.35;36.29
74792;SHT30;63319;46.046;17.802;2023-04-10T18:56:33;22.33;36.35
74792;SHT30;63319;46.046;17.802;2023-04-10T18:59:37;22.32;36.31
74792;SHT30;63319;46.046;17.802;2023-04-10T19:02:40;22.29;36.36
74792;SHT30;63319;46.046;17.802;2023-04-10T19:05:44;22.31;36.40
74792;SHT30;63319;46.046;17.802;2023-04-10T19:08:47;22.26;36.37
74792;SHT30;63319;46.046;17.802;2023-04-10T19:11:50;22.28;36.41
74792;SHT30;63319;46.046;17.802;2023-04-10T19:14:53;22.28;36.34
74792;SHT30;63319;46.046;17.802;2023-04-10T19:17:58;22.26;36.48
74792;SHT30;63319;46.046;17.802;2023-04-10T19:21:00;22.22;36.51
74792;SHT30;63319;46.046;17.802;2023-04-10T19:24:04;22.21;36.46
74792;SHT30;63319;46.046;17.802;2023-04-10T19:27:07;22.16;36.43
74792;SHT30;63319;46.046;17.802;2023-04-10T19:30:11;22.13;36.44
74792;SHT30;63319;46.046;17.802;2023-04-10T19:33:15;22.13;36.56
74792;SHT30;63319;46.046;17.802;2023-04-10T19:36:20;22.11;36.48
74792;SHT30;63319;46.046;17.802;2023-04-10T19:39:24;22.09;36.50
74792;SHT30;63319;46.046;17.802;2023-04-10T19:42:27;22.08;36.44
74792;SHT30;63319;46.046;17.802;2023-04-10T19:45:30;22.06;36.57
74792;SHT30;63319;46.046;17.802;2023-04-10T19:48:35;22.04;36.51
74792;SHT30;63319;46.046;17.802;2023-04-10T19:51:37;22.02;36.54
74792;SHT30;63319;46.046;17.802;2023-04-10T19:54:40;22.02;36.57
74792;SHT30;63319;46.046;17.802;2023-04-10T19:57:43;22.01;36.69